Airfield :
LOGIN :

Register | Disclaimer

   EN    FR    IT 

 










Legend :    VFR   Marginal VFR   IFR   Intensive IFR   Very Intensive IFR
Visi :
Ceiling :
>= 8 km
>= 3000ft
5 to 8 km
1000 to 3000 ft
1500m to 5 km
500 to 1000 ft
800 to 1500m
200 to 500 ft
< 800m
< 200 ft
Symbols :   Thunderstorms  Fog  Heavy snow  Heavy precipitations  Wind > 20 kt
SIGMETs :     Misc.  Thunderstorms  Icing  Turbulence  Mountain Waves  Volcanic Ashes







- Airport Elevation : 257 ft
- IATA code : MAN
- Download approach charts


EGCC - Manchester

CURRENT METAR :
  • 230450Z AUTO 19003KT 9999 FEW017 SCT041 03/01 Q1027 NOSIG

EXPIRED METARs :
  • 230420Z AUTO VRB02KT 9999 SCT021 BKN042 04/02 Q1027 NOSIG
  • 230350Z AUTO VRB02KT 9999 SCT022 OVC038 05/02 Q1028 NOSIG
  • 230320Z AUTO VRB02KT 9999 SCT023 BKN028 OVC039 05/03 Q1028 NOSIG
  • 230250Z AUTO VRB02KT 9999 FEW025 OVC042 06/01 Q1028 NOSIG
  • 230220Z AUTO VRB03KT 9999 BKN020 OVC038 06/02 Q1028 NOSIG

TAF TAF EGCC
Valid from the 23 at 00:00 until the 24 at 06:00 UTC


222257Z 2300/2406 VRB03KT 9999 FEW048
PROB30
TEMPO 2302/2308 9000
BECMG 2309/2312 30010KT
BECMG 2315/2318 24007KT
TEMPO 2400/2406 8000 -RA BKN014
BECMG 2404/2406 30010KT
ATIS : +44 161 499 2324
No reported NOTAMs for that airfield.



MET'MAP, your aeronautical weather chart ! - Copyright ORBIFLY December 2007 - Disclaimer

ORBIFLY MET'MAP TEAM :

Programming & Development : Alexandra Zaïnal
Concept & Development : Baudouin d'Aumeries
Co-Development & Prog : Marc-Olivier Méhu
Technical & hardware support : Manuel Goepfert

Contact : metmap@orbifly.com




SOURCES & CREDITS :

   NOAA